createdAt,value
2018-03-07T00:00:49.411Z,98493.88
2018-03-07T00:03:17.224Z,98489.42
2018-03-07T00:05:45.066Z,98485.16
2018-03-07T00:08:12.701Z,98485.86
2018-03-07T00:10:40.277Z,98485.38
2018-03-07T00:13:07.921Z,98481.60
2018-03-07T00:15:35.775Z,98481.28
2018-03-07T00:18:03.357Z,98483.30
2018-03-07T00:20:31.218Z,98476.27
2018-03-07T00:22:58.999Z,98479.88
2018-03-07T00:25:26.674Z,98479.17
2018-03-07T00:27:54.409Z,98480.64
2018-03-07T00:30:22.126Z,98478.46
2018-03-07T00:32:49.769Z,98479.27
2018-03-07T00:35:17.342Z,98477.22
2018-03-07T00:37:44.915Z,98477.36
2018-03-07T00:40:12.837Z,98473.52
2018-03-07T00:42:40.497Z,98476.37
2018-03-07T00:45:08.174Z,98479.25
2018-03-07T00:47:35.779Z,98471.06
2018-03-07T00:50:03.428Z,98472.80
2018-03-07T00:52:31.199Z,98476.74
2018-03-07T00:54:58.945Z,98473.77
2018-03-07T00:57:26.518Z,98474.45
2018-03-07T00:59:54.147Z,98471.54
2018-03-07T01:02:21.801Z,98474.68
2018-03-07T01:04:50.463Z,98474.92
2018-03-07T01:07:18.182Z,98470.73
2018-03-07T01:09:45.952Z,98468.67
2018-03-07T01:12:13.739Z,98465.97
2018-03-07T01:14:41.577Z,98465.39
2018-03-07T01:17:09.186Z,98470.47
2018-03-07T01:19:36.965Z,98468.73
2018-03-07T01:22:04.632Z,98466.06
2018-03-07T01:24:32.371Z,98465.12
2018-03-07T01:26:59.974Z,98462.73
2018-03-07T01:29:27.774Z,98466.73
2018-03-07T01:31:55.348Z,98466.51
2018-03-07T01:34:23.093Z,98466.63
2018-03-07T01:36:50.786Z,98468.16
2018-03-07T01:39:18.464Z,98460.02
2018-03-07T01:41:46.150Z,98466.17
2018-03-07T01:44:13.932Z,98467.39
2018-03-07T01:46:41.596Z,98470.58
2018-03-07T01:49:09.333Z,98467.27
2018-03-07T01:51:48.711Z,98466.50
2018-03-07T01:54:16.510Z,98465.95
2018-03-07T01:56:44.121Z,98461.83
2018-03-07T01:59:11.799Z,98463.33
2018-03-07T02:01:39.517Z,98457.85
2018-03-07T02:04:07.207Z,98457.05
2018-03-07T02:06:34.950Z,98456.44
2018-03-07T02:09:02.692Z,98459.78
2018-03-07T02:11:30.336Z,98460.63
2018-03-07T02:13:58.120Z,98455.34
2018-03-07T02:16:25.763Z,98454.49
2018-03-07T02:18:53.336Z,98453.06
2018-03-07T02:21:21.148Z,98450.97
2018-03-07T02:23:48.820Z,98452.90
2018-03-07T02:26:16.602Z,98448.14
2018-03-07T02:28:44.450Z,98452.88
2018-03-07T02:31:12.137Z,98456.11
2018-03-07T02:33:39.930Z,98459.48
2018-03-07T02:36:19.350Z,98456.41
2018-03-07T02:38:46.948Z,98457.66
2018-03-07T02:41:14.637Z,98456.13
2018-03-07T02:43:42.394Z,98454.63
2018-03-07T02:46:10.078Z,98451.19
2018-03-07T02:48:37.757Z,98451.75
2018-03-07T02:51:05.399Z,98447.66
2018-03-07T02:53:33.162Z,98445.13
2018-03-07T02:56:00.885Z,98449.62
2018-03-07T02:58:28.554Z,98444.66
2018-03-07T03:00:56.233Z,98447.58
2018-03-07T03:03:24.020Z,98458.58
2018-03-07T03:05:51.687Z,98454.13
2018-03-07T03:08:19.337Z,98455.41
2018-03-07T03:10:46.944Z,98450.64
2018-03-07T03:13:14.525Z,98462.51
2018-03-07T03:15:42.178Z,98468.04
2018-03-07T03:18:09.956Z,98463.14
2018-03-07T03:20:37.635Z,98464.73
2018-03-07T03:23:05.332Z,98467.45
2018-03-07T03:25:33.092Z,98465.13
2018-03-07T03:28:00.757Z,98460.73
2018-03-07T03:30:28.342Z,98464.39
2018-03-07T03:32:56.009Z,98458.70
2018-03-07T03:35:23.699Z,98468.78
2018-03-07T03:37:51.289Z,98462.21
2018-03-07T03:40:19.047Z,98465.88
2018-03-07T03:42:46.635Z,98463.70
2018-03-07T03:45:14.204Z,98459.23
2018-03-07T03:47:41.971Z,98456.82
2018-03-07T03:50:09.568Z,98459.27
2018-03-07T03:52:37.218Z,98460.99
2018-03-07T03:55:04.898Z,98460.77
2018-03-07T03:57:32.636Z,98455.76
2018-03-07T04:00:00.456Z,98459.13
2018-03-07T04:02:28.171Z,98461.63
2018-03-07T04:04:55.803Z,98459.30
2018-03-07T04:07:23.421Z,98457.27
2018-03-07T04:09:51.260Z,98455.09
2018-03-07T04:12:19.140Z,98462.55
2018-03-07T04:14:46.915Z,98460.97
2018-03-07T04:17:14.594Z,98466.83
2018-03-07T04:19:42.360Z,98472.62
2018-03-07T04:22:09.946Z,98480.60
2018-03-07T04:24:37.668Z,98479.30
2018-03-07T04:27:05.326Z,98489.80
2018-03-07T04:29:33.024Z,98484.91
2018-03-07T04:32:00.848Z,98493.81
2018-03-07T04:34:28.587Z,98500.27
2018-03-07T04:36:56.298Z,98505.14
2018-03-07T04:39:23.975Z,98495.72
2018-03-07T04:41:51.759Z,98504.66
2018-03-07T04:44:19.428Z,98507.70
2018-03-07T04:46:47.023Z,98502.62
2018-03-07T04:49:14.760Z,98503.85
2018-03-07T04:51:42.528Z,98507.94
2018-03-07T04:54:10.158Z,98505.39
2018-03-07T04:56:38.015Z,98501.03
2018-03-07T04:59:05.749Z,98503.83
2018-03-07T05:01:33.448Z,98511.38
2018-03-07T05:04:01.247Z,98510.02
2018-03-07T05:06:28.842Z,98517.20
2018-03-07T05:08:56.481Z,98525.41
2018-03-07T05:11:24.274Z,98520.40
2018-03-07T05:13:52.050Z,98521.11
2018-03-07T05:16:19.791Z,98524.63
2018-03-07T05:18:47.408Z,98529.69
2018-03-07T05:21:15.075Z,98524.86
2018-03-07T05:23:42.914Z,98527.48
2018-03-07T05:26:10.630Z,98520.16
2018-03-07T05:28:38.410Z,98517.87
2018-03-07T05:31:06.081Z,98515.94
2018-03-07T05:33:33.970Z,98515.61
2018-03-07T05:36:01.847Z,98514.14
2018-03-07T05:38:29.630Z,98514.48
2018-03-07T05:40:57.273Z,98510.50
2018-03-07T05:43:24.926Z,98517.53
2018-03-07T05:45:52.750Z,98518.48
2018-03-07T05:48:20.535Z,98521.63
2018-03-07T05:50:48.303Z,98519.69
2018-03-07T05:53:16.086Z,98529.10
2018-03-07T05:55:43.699Z,98525.20
2018-03-07T05:58:11.544Z,98525.09
2018-03-07T06:00:39.212Z,98529.02
2018-03-07T06:03:06.878Z,98527.08
2018-03-07T06:05:34.496Z,98526.97
2018-03-07T06:08:02.347Z,98529.05
2018-03-07T06:10:30.012Z,98531.83
2018-03-07T06:12:57.740Z,98538.44
2018-03-07T06:15:25.463Z,98538.03
2018-03-07T06:17:53.145Z,98538.95
2018-03-07T06:20:20.791Z,98541.70
2018-03-07T06:22:48.493Z,98545.34
2018-03-07T06:25:16.282Z,98545.95
2018-03-07T06:27:44.165Z,98537.53
2018-03-07T06:30:11.883Z,98549.89
2018-03-07T06:32:39.461Z,98552.20
2018-03-07T06:35:07.285Z,98552.84
2018-03-07T06:37:35.163Z,98557.23
2018-03-07T06:40:03.048Z,98557.61
2018-03-07T06:42:30.724Z,98559.78
2018-03-07T06:44:58.390Z,98567.95
2018-03-07T06:47:26.178Z,98563.44
2018-03-07T06:49:54.059Z,98566.13
2018-03-07T06:52:21.718Z,98563.34
2018-03-07T06:54:49.308Z,98571.58
2018-03-07T06:57:16.949Z,98572.80
2018-03-07T06:59:44.528Z,98572.91
2018-03-07T07:02:12.124Z,98569.45
2018-03-07T07:04:39.799Z,98576.88
2018-03-07T07:07:07.476Z,98573.84
2018-03-07T07:09:35.143Z,98571.45
2018-03-07T07:12:02.918Z,98579.02
2018-03-07T07:14:30.608Z,98584.72
2018-03-07T07:16:58.438Z,98589.94
2018-03-07T07:19:26.114Z,98586.81
2018-03-07T07:21:53.699Z,98587.94
2018-03-07T07:24:21.566Z,98591.34
2018-03-07T07:26:49.262Z,98593.71
2018-03-07T07:29:16.951Z,98593.69
2018-03-07T07:31:44.630Z,98596.61
2018-03-07T07:34:12.300Z,98604.16
2018-03-07T07:36:40.097Z,98596.72
2018-03-07T07:39:07.747Z,98605.93
2018-03-07T07:41:35.319Z,98607.00
2018-03-07T07:44:03.012Z,98604.16
2018-03-07T07:46:30.794Z,98607.88
2018-03-07T07:48:58.425Z,98609.41
2018-03-07T07:51:26.036Z,98614.23
2018-03-07T07:53:53.821Z,98616.94
2018-03-07T07:56:21.500Z,98622.29
2018-03-07T07:58:49.085Z,98621.30
2018-03-07T08:01:16.740Z,98624.58
2018-03-07T08:03:44.418Z,98625.12
2018-03-07T08:06:12.070Z,98621.16
2018-03-07T08:08:39.658Z,98621.08
2018-03-07T08:11:07.449Z,98624.87
2018-03-07T08:13:35.092Z,98623.11
2018-03-07T08:16:02.762Z,98618.59
2018-03-07T08:18:30.581Z,98629.13
2018-03-07T08:20:58.459Z,98621.55
2018-03-07T08:23:26.029Z,98620.27
2018-03-07T08:25:53.622Z,98621.13
2018-03-07T08:28:22.164Z,98620.36
2018-03-07T08:30:49.940Z,98622.88
2018-03-07T08:33:17.764Z,98617.61
2018-03-07T08:35:45.452Z,98617.68
2018-03-07T08:38:13.319Z,98618.33
2018-03-07T08:40:40.987Z,98619.57
2018-03-07T08:43:08.664Z,98622.74
2018-03-07T08:45:36.237Z,98624.61
2018-03-07T08:48:04.016Z,98623.71
2018-03-07T08:50:31.691Z,98623.38
2018-03-07T08:52:59.473Z,98627.13
2018-03-07T08:55:27.139Z,98630.59
2018-03-07T08:57:54.810Z,98627.89
2018-03-07T09:00:22.393Z,98631.10
2018-03-07T09:02:49.977Z,98631.49
2018-03-07T09:05:17.698Z,98631.51
2018-03-07T09:07:45.302Z,98631.98
2018-03-07T09:10:12.957Z,98638.94
2018-03-07T09:12:40.666Z,98636.95
2018-03-07T09:15:08.451Z,98640.94
2018-03-07T09:17:36.081Z,98644.85
2018-03-07T09:20:03.787Z,98645.27
2018-03-07T09:22:31.585Z,98646.69
2018-03-07T09:24:59.225Z,98656.78
2018-03-07T09:27:27.033Z,98654.95
2018-03-07T09:29:54.706Z,98658.44
2018-03-07T09:32:22.341Z,98650.02
2018-03-07T09:34:50.015Z,98644.87
2018-03-07T09:37:17.604Z,98648.19
2018-03-07T09:39:45.411Z,98650.00
2018-03-07T09:42:12.985Z,98651.87
2018-03-07T09:44:40.759Z,98652.82
2018-03-07T09:47:08.427Z,98659.97
2018-03-07T09:49:36.165Z,98652.23
2018-03-07T09:52:03.766Z,98651.48
2018-03-07T09:54:32.181Z,98651.98
2018-03-07T09:56:59.860Z,98650.91
2018-03-07T09:59:27.535Z,98650.38
2018-03-07T10:01:55.335Z,98647.27
2018-03-07T10:04:23.086Z,98651.16
2018-03-07T10:06:50.698Z,98649.16
2018-03-07T10:09:18.333Z,98655.77
2018-03-07T10:11:46.116Z,98655.67
2018-03-07T10:14:13.894Z,98656.19
2018-03-07T10:16:41.548Z,98658.73
2018-03-07T10:19:09.289Z,98658.91
2018-03-07T10:21:36.901Z,98663.57
2018-03-07T10:24:04.533Z,98663.91
2018-03-07T10:26:32.161Z,98666.08
2018-03-07T10:28:59.753Z,98664.28
2018-03-07T10:31:27.415Z,98662.78
2018-03-07T10:33:55.089Z,98662.65
2018-03-07T10:36:22.871Z,98661.44
2018-03-07T10:38:50.641Z,98660.34
2018-03-07T10:41:18.311Z,98658.12
2018-03-07T10:43:45.992Z,98662.91
2018-03-07T10:46:13.604Z,98649.05
2018-03-07T10:48:41.248Z,98658.24
2018-03-07T10:51:08.917Z,98660.63
2018-03-07T10:53:36.488Z,98661.34
2018-03-07T10:56:04.274Z,98659.30
2018-03-07T10:58:32.153Z,98659.86
2018-03-07T11:00:59.745Z,98668.94
2018-03-07T11:03:27.342Z,98673.42
2018-03-07T11:05:55.966Z,98671.34
2018-03-07T11:08:23.555Z,98679.70
2018-03-07T11:10:51.234Z,98684.16
2018-03-07T11:13:18.911Z,98684.80
2018-03-07T11:15:46.806Z,98690.44
2018-03-07T11:18:17.346Z,98684.00
2018-03-07T11:20:45.017Z,98686.08
2018-03-07T11:23:12.684Z,98691.97
2018-03-07T11:25:40.295Z,98688.60
2018-03-07T11:28:08.105Z,98694.16
2018-03-07T11:30:35.716Z,98696.94
2018-03-07T11:33:03.461Z,98694.34
2018-03-07T11:35:31.175Z,98695.90
2018-03-07T11:37:58.952Z,98693.44
2018-03-07T11:40:26.538Z,98694.59
2018-03-07T11:42:54.411Z,98696.61
2018-03-07T11:45:22.074Z,98691.20
2018-03-07T11:47:49.862Z,98688.80
2018-03-07T11:50:17.746Z,98695.66
2018-03-07T11:52:45.328Z,98691.20
2018-03-07T11:55:12.980Z,98691.09
2018-03-07T11:57:40.659Z,98689.10
2018-03-07T12:00:08.446Z,98687.00
2018-03-07T12:02:36.102Z,98689.73
2018-03-07T12:05:03.792Z,98681.42
2018-03-07T12:07:31.457Z,98678.62
2018-03-07T12:09:59.252Z,98667.55
2018-03-07T12:12:26.885Z,98672.30
2018-03-07T12:14:54.592Z,98669.89
2018-03-07T12:17:22.384Z,98668.75
2018-03-07T12:19:50.034Z,98671.19
2018-03-07T12:22:17.729Z,98673.31
2018-03-07T12:24:45.393Z,98669.30
2018-03-07T12:27:13.080Z,98676.62
2018-03-07T12:29:40.742Z,98670.88
2018-03-07T12:32:08.424Z,98666.83
2018-03-07T12:34:36.073Z,98667.95
2018-03-07T12:37:03.646Z,98665.90
2018-03-07T12:39:31.221Z,98658.63
2018-03-07T12:41:58.929Z,98659.54
2018-03-07T12:44:26.549Z,98651.76
2018-03-07T12:46:54.187Z,98653.06
2018-03-07T12:49:21.912Z,98655.84
2018-03-07T12:51:49.697Z,98652.92
2018-03-07T12:54:17.395Z,98654.91
2018-03-07T12:56:45.082Z,98645.66
2018-03-07T12:59:12.865Z,98654.73
2018-03-07T13:01:40.588Z,98655.97
2018-03-07T13:04:08.216Z,98651.43
2018-03-07T13:06:35.944Z,98651.11
2018-03-07T13:09:03.615Z,98656.55
2018-03-07T13:11:31.257Z,98656.41
2018-03-07T13:13:58.971Z,98653.11
2018-03-07T13:16:26.737Z,98651.94
2018-03-07T13:18:54.580Z,98659.78
2018-03-07T13:21:22.239Z,98657.77
2018-03-07T13:23:49.846Z,98652.19
2018-03-07T13:26:17.430Z,98656.38
2018-03-07T13:28:45.177Z,98656.27
2018-03-07T13:31:12.842Z,98643.91
2018-03-07T13:33:40.627Z,98645.61
2018-03-07T13:36:08.286Z,98645.51
2018-03-07T13:38:36.038Z,98644.45
2018-03-07T13:41:03.746Z,98653.46
2018-03-07T13:43:31.435Z,98639.52
2018-03-07T13:45:59.105Z,98644.44
2018-03-07T13:48:26.699Z,98640.27
2018-03-07T13:50:54.519Z,98633.00
2018-03-07T13:53:22.136Z,98640.67
2018-03-07T13:55:49.913Z,98637.23
2018-03-07T13:58:17.581Z,98640.94
2018-03-07T14:00:45.374Z,98637.72
2018-03-07T14:03:13.046Z,98640.54
2018-03-07T14:05:40.822Z,98630.97
2018-03-07T14:08:08.601Z,98632.62
2018-03-07T14:10:36.375Z,98631.66
2018-03-07T14:13:04.156Z,98628.48
2018-03-07T14:15:31.892Z,98628.16
2018-03-07T14:17:59.595Z,98634.04
2018-03-07T14:20:27.351Z,98634.61
2018-03-07T14:22:54.925Z,98636.30
2018-03-07T14:25:22.636Z,98631.27
2018-03-07T14:27:50.418Z,98632.74
2018-03-07T14:30:18.194Z,98642.19
2018-03-07T14:32:45.847Z,98641.56
2018-03-07T14:35:13.644Z,98645.74
2018-03-07T14:37:41.326Z,98640.27
2018-03-07T14:40:09.015Z,98648.07
2018-03-07T14:42:36.692Z,98645.11
2018-03-07T14:45:04.554Z,98647.20
2018-03-07T14:50:06.352Z,98652.31
2018-03-07T14:52:34.029Z,98648.30
2018-03-07T14:55:01.699Z,98654.83
2018-03-07T14:57:29.370Z,98659.48
2018-03-07T14:59:57.058Z,98648.12
2018-03-07T15:02:24.663Z,98646.66
2018-03-07T15:04:52.304Z,98650.77
2018-03-07T15:07:20.089Z,98648.12
2018-03-07T15:09:47.673Z,98652.97
2018-03-07T15:12:15.310Z,98644.42
2018-03-07T15:14:42.999Z,98657.13
2018-03-07T15:17:10.681Z,98657.98
2018-03-07T15:19:38.463Z,98653.41
2018-03-07T15:22:06.123Z,98652.61
2018-03-07T15:24:33.811Z,98655.53
2018-03-07T15:27:01.403Z,98659.48
2018-03-07T15:29:29.044Z,98662.03
2018-03-07T15:31:56.835Z,98665.00
2018-03-07T15:34:24.576Z,98671.31
2018-03-07T15:36:52.166Z,98672.66
2018-03-07T15:39:19.848Z,98679.53
2018-03-07T15:41:47.542Z,98681.61
2018-03-07T15:44:15.209Z,98682.67
2018-03-07T15:46:42.826Z,98677.69
2018-03-07T15:49:10.460Z,98677.08
2018-03-07T15:51:38.130Z,98680.49
2018-03-07T15:54:05.703Z,98689.38
2018-03-07T15:56:33.273Z,98690.02
2018-03-07T15:59:00.905Z,98686.94
2018-03-07T16:01:28.520Z,98684.25
2018-03-07T16:03:56.318Z,98690.61
2018-03-07T16:06:23.999Z,98691.77
2018-03-07T16:08:51.602Z,98691.63
2018-03-07T16:11:19.200Z,98696.37
2018-03-07T16:13:46.864Z,98694.47
2018-03-07T16:16:14.698Z,98694.75
2018-03-07T16:18:42.474Z,98697.12
2018-03-07T16:21:10.078Z,98704.05
2018-03-07T16:23:37.927Z,98709.20
2018-03-07T16:26:05.803Z,98714.55
2018-03-07T16:28:33.586Z,98711.21
2018-03-07T16:31:01.348Z,98722.36
2018-03-07T16:33:29.142Z,98718.25
2018-03-07T16:35:56.867Z,98724.08
2018-03-07T16:38:24.512Z,98729.84
2018-03-07T16:40:52.266Z,98739.52
2018-03-07T16:43:20.020Z,98736.09
2018-03-07T16:45:47.714Z,98742.52
2018-03-07T16:48:15.503Z,98740.22
2018-03-07T16:50:43.279Z,98743.02
2018-03-07T16:53:10.951Z,98747.14
2018-03-07T16:55:38.625Z,98744.80
2018-03-07T16:58:06.248Z,98744.69
2018-03-07T17:00:33.851Z,98748.60
2018-03-07T17:03:01.495Z,98749.62
2018-03-07T17:05:29.139Z,98745.39
2018-03-07T17:07:56.785Z,98746.93
2018-03-07T17:10:24.437Z,98760.05
2018-03-07T17:12:52.038Z,98753.52
2018-03-07T17:15:19.713Z,98763.16
2018-03-07T17:17:47.610Z,98766.02
2018-03-07T17:20:15.389Z,98760.66
2018-03-07T17:22:43.047Z,98763.61
2018-03-07T17:25:10.734Z,98770.89
2018-03-07T17:27:38.400Z,98776.31
2018-03-07T17:30:06.022Z,98769.25
2018-03-07T17:32:33.744Z,98773.22
2018-03-07T17:35:01.350Z,98775.53
2018-03-07T17:37:29.117Z,98779.34
2018-03-07T17:39:56.771Z,98780.26
2018-03-07T17:42:24.566Z,98780.72
2018-03-07T17:44:52.198Z,98784.82
2018-03-07T17:47:19.844Z,98783.36
2018-03-07T17:49:47.584Z,98788.63
2018-03-07T17:52:15.149Z,98784.89
2018-03-07T17:54:43.860Z,98790.88
2018-03-07T17:57:11.750Z,98791.10
2018-03-07T17:59:39.413Z,98790.89
2018-03-07T18:02:07.027Z,98797.05
2018-03-07T18:04:34.767Z,98789.63
2018-03-07T18:07:02.553Z,98788.54
2018-03-07T18:09:30.173Z,98793.65
2018-03-07T18:11:57.757Z,98798.52
2018-03-07T18:14:25.383Z,98795.90
2018-03-07T18:16:53.049Z,98804.72
2018-03-07T18:19:20.893Z,98801.45
2018-03-07T18:21:48.500Z,98802.75
2018-03-07T18:24:16.066Z,98800.52
2018-03-07T18:26:43.738Z,98803.64
2018-03-07T18:29:11.422Z,98801.79
2018-03-07T18:31:39.116Z,98801.20
2018-03-07T18:34:06.866Z,98798.43
2018-03-07T18:36:34.476Z,98799.53
2018-03-07T18:39:02.144Z,98795.80
2018-03-07T18:41:30.009Z,98799.55
2018-03-07T18:43:57.800Z,98796.83
2018-03-07T18:46:25.628Z,98802.19
2018-03-07T18:48:53.318Z,98792.86
2018-03-07T18:51:21.120Z,98797.30
2018-03-07T18:53:48.904Z,98799.58
2018-03-07T18:56:16.677Z,98804.02
2018-03-07T18:58:44.458Z,98806.38
2018-03-07T19:01:12.136Z,98805.16
2018-03-07T19:03:39.904Z,98806.76
2018-03-07T19:06:07.574Z,98808.77
2018-03-07T19:08:35.249Z,98809.50
2018-03-07T19:11:02.992Z,98805.64
2018-03-07T19:13:30.818Z,98808.79
2018-03-07T19:15:58.488Z,98811.95
2018-03-07T19:18:26.213Z,98810.18
2018-03-07T19:20:53.831Z,98812.70
2018-03-07T19:23:21.722Z,98811.98
2018-03-07T19:25:49.502Z,98812.27
2018-03-07T19:28:17.179Z,98811.94
2018-03-07T19:30:44.772Z,98811.67
2018-03-07T19:33:12.452Z,98819.23
2018-03-07T19:35:40.100Z,98820.80
2018-03-07T19:38:07.880Z,98819.27
2018-03-07T19:40:35.862Z,98828.61
2018-03-07T19:43:03.537Z,98821.82
2018-03-07T19:45:31.420Z,98823.91
2018-03-07T19:47:59.090Z,98825.61
2018-03-07T19:50:26.861Z,98826.84
2018-03-07T19:52:54.544Z,98826.61
2018-03-07T19:55:22.428Z,98827.16
2018-03-07T19:57:50.210Z,98824.80
2018-03-07T20:00:18.106Z,98830.37
2018-03-07T20:02:45.841Z,98831.73
2018-03-07T20:05:13.709Z,98830.64
2018-03-07T20:07:41.374Z,98832.22
2018-03-07T20:10:08.995Z,98827.20
2018-03-07T20:12:36.832Z,98827.72
2018-03-07T20:15:04.600Z,98825.55
2018-03-07T20:17:32.174Z,98831.41
2018-03-07T20:19:59.962Z,98829.71
2018-03-07T20:22:27.666Z,98833.97
2018-03-07T20:24:55.250Z,98836.81
2018-03-07T20:27:22.920Z,98843.64
2018-03-07T20:29:50.646Z,98844.20
2018-03-07T20:32:18.377Z,98841.37
2018-03-07T20:34:46.107Z,98850.19
2018-03-07T20:37:13.732Z,98852.84
2018-03-07T20:39:41.511Z,98854.66
2018-03-07T20:42:09.289Z,98854.50
2018-03-07T20:44:37.172Z,98858.94
2018-03-07T20:47:04.805Z,98851.30
2018-03-07T20:49:32.414Z,98855.97
2018-03-07T20:52:00.084Z,98853.29
2018-03-07T20:54:27.766Z,98857.64
2018-03-07T20:56:55.354Z,98857.23
2018-03-07T20:59:23.013Z,98852.09
2018-03-07T21:01:50.676Z,98856.81
2018-03-07T21:04:18.358Z,98862.23
2018-03-07T21:06:46.035Z,98863.22
2018-03-07T21:09:13.822Z,98862.89
2018-03-07T21:11:41.552Z,98854.86
2018-03-07T21:14:09.129Z,98861.77
2018-03-07T21:16:36.955Z,98858.74
2018-03-07T21:19:04.568Z,98857.40
2018-03-07T21:21:32.229Z,98860.91
2018-03-07T21:23:59.857Z,98863.30
2018-03-07T21:26:27.442Z,98869.33
2018-03-07T21:28:55.333Z,98866.08
2018-03-07T21:31:23.213Z,98866.02
2018-03-07T21:33:50.838Z,98872.56
2018-03-07T21:36:18.518Z,98872.47
2018-03-07T21:38:46.228Z,98872.00
2018-03-07T21:41:14.118Z,98876.38
2018-03-07T21:43:41.708Z,98880.02
2018-03-07T21:46:09.576Z,98879.28
2018-03-07T21:48:37.352Z,98880.93
2018-03-07T21:51:04.932Z,98880.87
2018-03-07T21:53:32.699Z,98883.38
2018-03-07T21:56:00.359Z,98879.73
2018-03-07T21:58:27.942Z,98884.18
2018-03-07T22:00:55.727Z,98883.95
2018-03-07T22:03:23.385Z,98888.05
2018-03-07T22:05:51.120Z,98889.14
2018-03-07T22:08:18.801Z,98886.97
2018-03-07T22:10:46.413Z,98886.11
2018-03-07T22:13:14.086Z,98895.58
2018-03-07T22:15:41.762Z,98894.11
2018-03-07T22:18:09.453Z,98895.14
2018-03-07T22:20:37.234Z,98897.77
2018-03-07T22:23:04.906Z,98891.91
2018-03-07T22:25:32.575Z,98895.77
2018-03-07T22:28:00.324Z,98896.39
2018-03-07T22:30:27.965Z,98896.68
2018-03-07T22:32:55.538Z,98905.38
2018-03-07T22:35:23.116Z,98907.14
2018-03-07T22:37:50.765Z,98901.24
2018-03-07T22:40:18.534Z,98908.67
2018-03-07T22:42:46.113Z,98905.73
2018-03-07T22:45:13.886Z,98910.00
2018-03-07T22:47:41.552Z,98912.00
2018-03-07T22:50:09.244Z,98908.61
2018-03-07T22:52:36.899Z,98912.08
2018-03-07T22:55:04.795Z,98921.22
2018-03-07T22:57:32.571Z,98916.57
2018-03-07T23:00:00.160Z,98919.84
2018-03-07T23:02:28.005Z,98920.14
2018-03-07T23:04:55.653Z,98920.47
2018-03-07T23:07:23.224Z,98921.33
2018-03-07T23:09:51.053Z,98926.86
2018-03-07T23:12:18.624Z,98925.62
2018-03-07T23:14:46.306Z,98927.86
2018-03-07T23:17:13.970Z,98925.23
2018-03-07T23:19:41.554Z,98931.31
2018-03-07T23:22:09.212Z,98933.23
2018-03-07T23:24:37.004Z,98933.13
2018-03-07T23:27:04.581Z,98939.92
2018-03-07T23:29:32.240Z,98934.91
2018-03-07T23:31:59.977Z,98947.23
2018-03-07T23:34:27.601Z,98943.52
2018-03-07T23:36:55.484Z,98944.84
2018-03-07T23:39:23.263Z,98947.61
2018-03-07T23:41:50.861Z,98952.66
2018-03-07T23:44:18.512Z,98958.88
2018-03-07T23:46:46.084Z,98950.17
2018-03-07T23:49:13.967Z,98960.84
2018-03-07T23:51:41.844Z,98967.13
2018-03-07T23:54:09.512Z,98967.06
2018-03-07T23:56:37.186Z,98973.08
2018-03-07T23:59:04.899Z,98965.59
